Kezdőlap
METAR-TAF:

METAR-TAF

Repülőterek :

Hagåtña, Guam, Amerikai Egyesült Államok

földrajzi szélesség: 13-29N, földrajzi hosszúság: 144-48E, magasság: 91 m

Jelenlegi meteorológiai megfigyelések

A jelentés 20 perccel ezelõtt készült, 14:54 UTC
Keleti szél 3 kt
Hőmérséklet 27°C
Páratartalom 100%
Légköri nyomás 1009 hPa
Látótávolság: 16.1 km
Derült ég

METAR: PGUM 211454Z 10003KT 10SM CLR 27/27 A2980 RMK AO2 SLP084 T02670267 58011 $

Idő: 01:14 (15:14 UTC)

Előrejelzés

A jelentés 3 órával és 41 perccel ezelõtt készült, 11:33 UTC
Az előrejelzés 21-én 12 óra UTC és 22-én 18 óra UTC között érvényes
Különbözõ irányokból fújó szél 5 kt
Látótávolság: 10 km
Kevés felhő 1800 lábon
Szórványos felhőzet 5000 lábon
Záporok a közelben

TAF: PGUM 211133Z 2112/2218 VRB05KT P6SM VCSH FEW018 SCT050

Meteorológiai megfigyelések és előrejelzések több, mint 4000 repülőtéren (METAR és TAF jelentéseket).

A térképen piros és sárga pontok jelzik az elérhető meteorológiai állomásokat.

Mozgassa az egeret a pont fölött, hogy megjelenjen az állomás neve.

Azután kattintson az időjárási megfigyelések és előrejelzések megtekintéséhez.

A térkép megváltoztatása: kattintson a fekete keresztel jelölt zöld gombra ráközelítéshez, a vonallal jelölt zöld gombra távolításhoz, vagy a zöld nyilakra a szomszédos térképek eléréséhez.


METAR-TAF: